createdAt,value
2023-05-02T04:39:58.858Z,5.34
2023-05-02T04:42:27.941Z,5.53
2023-05-02T04:45:01.174Z,5.70
2023-05-02T04:47:28.164Z,5.86
2023-05-02T04:49:55.192Z,6.04
2023-05-02T04:52:22.085Z,6.21
2023-05-02T04:54:49.084Z,6.40
2023-05-02T04:57:16.127Z,6.58
2023-05-02T04:59:47.110Z,6.76
2023-05-02T05:02:15.333Z,6.96
2023-05-02T05:04:42.538Z,7.16
2023-05-02T05:07:09.593Z,7.35
2023-05-02T05:09:36.633Z,7.52
2023-05-02T05:12:04.017Z,7.71
2023-05-02T05:14:34.098Z,7.90
2023-05-02T05:17:02.801Z,8.11
2023-05-02T05:19:30.268Z,8.31
2023-05-02T05:21:57.649Z,8.52
2023-05-02T05:24:24.704Z,8.72
2023-05-02T05:26:53.526Z,8.93
2023-05-02T05:29:20.687Z,9.15
2023-05-02T05:31:47.984Z,9.36
2023-05-02T05:34:18.032Z,9.57
2023-05-02T05:36:46.100Z,9.77
2023-05-02T05:39:33.278Z,9.98
2023-05-02T05:42:03.212Z,10.17
2023-05-02T05:44:43.169Z,10.38
2023-05-02T05:47:14.088Z,10.64
2023-05-02T05:49:41.496Z,10.88
2023-05-02T05:52:10.244Z,11.09
2023-05-02T05:54:37.151Z,11.29
2023-05-02T05:57:06.751Z,11.45
2023-05-02T05:59:36.255Z,11.64
2023-05-02T06:02:04.221Z,11.82
2023-05-02T06:04:31.930Z,12.00
2023-05-02T06:06:59.694Z,12.15
2023-05-02T06:09:26.659Z,12.29
2023-05-02T06:11:53.584Z,12.44
2023-05-02T06:14:20.752Z,12.59
2023-05-02T06:16:52.321Z,12.72
2023-05-02T06:19:20.388Z,12.85
2023-05-02T06:21:47.775Z,12.95
2023-05-02T06:24:15.228Z,13.04
2023-05-02T06:26:42.462Z,13.13
2023-05-02T06:29:09.630Z,13.24
2023-05-02T06:31:36.979Z,13.34
2023-05-02T06:34:04.217Z,13.46
2023-05-02T06:36:31.724Z,13.58
2023-05-02T06:38:58.652Z,13.72
2023-05-02T06:41:25.629Z,13.81
2023-05-02T06:43:52.576Z,13.89
2023-05-02T06:46:20.968Z,13.96
2023-05-02T06:48:48.300Z,14.04
2023-05-02T06:51:15.509Z,14.13
2023-05-02T06:53:42.590Z,14.23
2023-05-02T06:56:10.373Z,14.33
2023-05-02T06:58:37.231Z,14.44
2023-05-02T07:01:04.147Z,14.52
2023-05-02T07:03:31.510Z,14.60
2023-05-02T07:05:59.707Z,14.71
2023-05-02T07:08:27.084Z,14.76
2023-05-02T07:10:54.314Z,14.78
2023-05-02T07:13:21.286Z,14.83
2023-05-02T07:15:48.201Z,14.88
2023-05-02T07:18:15.428Z,14.90
2023-05-02T07:20:42.646Z,14.94
2023-05-02T07:23:09.791Z,14.96
2023-05-02T07:25:37.323Z,15.00
2023-05-02T07:28:06.004Z,15.06
2023-05-02T07:30:34.091Z,15.06
2023-05-02T07:33:02.964Z,15.04
2023-05-02T07:35:30.391Z,15.07
2023-05-02T07:37:57.537Z,15.19
2023-05-02T07:40:24.680Z,15.32
2023-05-02T07:42:51.724Z,15.42
2023-05-02T07:45:18.915Z,15.53
2023-05-02T07:47:46.769Z,15.63
2023-05-02T07:50:30.515Z,15.72
2023-05-02T07:53:07.578Z,15.86
2023-05-02T07:55:34.851Z,15.94
2023-05-02T07:58:01.817Z,15.94
2023-05-02T08:00:31.735Z,15.92
2023-05-02T08:02:58.921Z,15.92
2023-05-02T08:05:50.475Z,15.91
2023-05-02T08:08:29.723Z,15.82
2023-05-02T08:11:05.435Z,15.79
2023-05-02T08:14:37.894Z,15.90
2023-05-02T08:17:54.390Z,16.05
2023-05-02T08:20:46.436Z,16.23
2023-05-02T08:23:32.836Z,16.35
2023-05-02T08:26:00.486Z,16.39
2023-05-02T08:28:28.768Z,16.38
2023-05-02T08:30:57.738Z,16.35
2023-05-02T08:33:31.070Z,16.40
2023-05-02T08:36:14.425Z,16.50
2023-05-02T08:38:46.568Z,16.58
2023-05-02T08:41:22.018Z,16.65
2023-05-02T08:43:54.254Z,16.77
2023-05-02T08:46:24.242Z,16.92
2023-05-02T08:48:51.696Z,17.07
2023-05-02T08:53:47.158Z,17.18
2023-05-02T08:56:14.150Z,17.08
2023-05-02T08:58:41.678Z,17.00
2023-05-02T09:01:19.924Z,17.01
2023-05-02T09:03:51.167Z,16.95
2023-05-02T09:06:21.373Z,16.93
2023-05-02T09:08:50.264Z,16.96
2023-05-02T09:11:17.463Z,17.09
2023-05-02T09:13:44.943Z,17.22
2023-05-02T09:16:38.575Z,17.36
2023-05-02T09:19:05.710Z,17.54
2023-05-02T09:21:37.304Z,17.66
2023-05-02T09:24:21.430Z,17.72
2023-05-02T09:27:05.076Z,17.79
2023-05-02T09:29:36.208Z,17.77
2023-05-02T09:32:10.521Z,17.68
2023-05-02T09:34:39.555Z,17.65
2023-05-02T09:37:10.343Z,17.72
2023-05-02T09:39:38.579Z,17.80
2023-05-02T09:42:06.001Z,17.89
2023-05-02T09:44:37.679Z,17.96
2023-05-02T09:47:06.901Z,18.02
2023-05-02T09:49:47.170Z,18.12
2023-05-02T09:52:18.954Z,18.17
2023-05-02T09:54:51.010Z,18.27
2023-05-02T09:57:25.109Z,18.38
2023-05-02T09:59:59.800Z,18.32
2023-05-02T10:02:29.392Z,18.18
2023-05-02T10:04:57.383Z,18.06
2023-05-02T10:07:25.319Z,17.97
2023-05-02T10:09:52.600Z,17.94
2023-05-02T10:12:19.627Z,17.98
2023-05-02T10:14:50.937Z,18.03
2023-05-02T10:17:24.045Z,18.10
2023-05-02T10:19:58.130Z,18.24
2023-05-02T10:22:25.134Z,18.49
2023-05-02T10:24:57.343Z,18.78
2023-05-02T10:27:29.738Z,19.08
2023-05-02T10:30:00.213Z,19.46
2023-05-02T10:32:30.548Z,19.87
2023-05-02T10:34:57.825Z,20.24
2023-05-02T10:37:26.814Z,20.66
2023-05-02T10:39:55.140Z,21.03
2023-05-02T10:42:23.394Z,21.30
2023-05-02T10:44:51.378Z,21.68
2023-05-02T10:47:22.592Z,22.09
2023-05-02T10:49:51.341Z,22.65
2023-05-02T10:52:39.784Z,23.31
2023-05-02T10:55:17.221Z,23.82
2023-05-02T10:58:09.240Z,24.22
2023-05-02T11:00:36.301Z,24.92
2023-05-02T11:03:03.802Z,25.22
2023-05-02T11:05:30.868Z,25.31
2023-05-02T11:08:16.829Z,25.50
2023-05-02T11:10:46.174Z,25.59
2023-05-02T11:13:13.162Z,25.62
2023-05-02T11:15:40.059Z,25.34
2023-05-02T11:18:14.450Z,24.85
2023-05-02T11:20:42.410Z,24.38
2023-05-02T11:23:15.603Z,23.95
2023-05-02T11:25:43.671Z,23.64
2023-05-02T11:28:39.803Z,23.31
2023-05-02T11:31:10.978Z,23.11
2023-05-02T11:33:38.053Z,22.94
2023-05-02T11:36:05.097Z,22.84
2023-05-02T11:38:38.440Z,22.77
2023-05-02T11:41:05.489Z,22.56
2023-05-02T11:43:32.826Z,22.37
2023-05-02T11:46:01.747Z,22.31
2023-05-02T11:48:29.323Z,22.19
2023-05-02T11:51:05.410Z,22.14
2023-05-02T11:53:33.433Z,22.06
2023-05-02T11:56:01.847Z,21.97
2023-05-02T11:58:35.155Z,21.98
2023-05-02T12:01:15.475Z,21.98
2023-05-02T12:03:42.758Z,21.91
2023-05-02T12:06:18.933Z,21.87
2023-05-02T12:08:46.808Z,21.71
2023-05-02T12:11:15.647Z,21.56
2023-05-02T12:13:50.222Z,21.50
2023-05-02T12:16:18.066Z,21.35
2023-05-02T12:18:45.229Z,21.21
